Time;durP1;ratioP1;P1;durP2;ratioP2;P2;SDS_P1;SDS_P2;PMS_P1;PMS_P2;Temp;Humidity;BMP_temperature;BMP_pressure;BME280_temperature;BME280_humidity;BME280_pressure;Samples;Min_cycle;Max_cycle;Signal;HPM_P1;HPM_P2
2022/04/12 00:00:28;;;;;;;1.07;0.40;;;;;;;1.47;100.00;99697.92;1735766;82;20981;-49
2022/04/12 00:02:55;;;;;;;0.40;0.40;;;;;;;1.46;100.00;99714.91;1732330;82;21445;-52
2022/04/12 00:05:22;;;;;;;1.35;0.60;;;;;;;1.48;100.00;99700.46;1735828;82;21455;-51
2022/04/12 00:07:49;;;;;;;1.55;0.50;;;;;;;1.47;100.00;99705.13;1735842;82;21041;-50
2022/04/12 00:10:16;;;;;;;0.75;0.45;;;;;;;1.43;100.00;99704.28;1736115;82;21525;-50
2022/04/12 00:12:43;;;;;;;0.62;0.33;;;;;;;1.47;100.00;99715.34;1735832;82;20858;-50
2022/04/12 00:15:10;;;;;;;0.50;0.40;;;;;;;1.50;100.00;99712.80;1735931;82;20933;-49
2022/04/12 00:20:26;;;;;;;1.85;0.33;;;;;;;1.55;100.00;99696.26;1735969;82;20977;-49
2022/04/12 00:22:54;;;;;;;1.15;0.57;;;;;;;1.54;100.00;99692.88;1735793;82;21179;-51
2022/04/12 00:25:22;;;;;;;0.80;0.80;;;;;;;1.56;100.00;99690.31;1735793;82;20937;-51
2022/04/12 00:27:53;;;;;;;1.20;1.12;;;;;;;1.60;100.00;99702.67;1736015;82;20921;-51
2022/04/12 00:30:20;;;;;;;1.12;0.80;;;;;;;1.58;100.00;99719.23;1735876;82;20901;-50
2022/04/12 00:32:47;;;;;;;1.47;0.93;;;;;;;1.60;100.00;99703.52;1735947;82;21403;-50
2022/04/12 00:35:13;;;;;;;2.75;0.85;;;;;;;1.64;100.00;99711.64;1715370;82;21332;-49
2022/04/12 00:37:40;;;;;;;0.90;0.90;;;;;;;1.62;100.00;99727.78;1735997;82;20984;-49
2022/04/12 00:40:08;;;;;;;1.07;0.95;;;;;;;1.65;100.00;99706.10;1735968;82;20931;-51
2022/04/12 00:42:36;;;;;;;0.98;0.98;;;;;;;1.63;100.00;99711.19;1715363;82;20909;-49
2022/04/12 00:45:06;;;;;;;0.90;0.90;;;;;;;1.65;100.00;99713.76;1735953;82;20921;-48
2022/04/12 00:47:32;;;;;;;0.80;0.80;;;;;;;1.63;100.00;99715.02;1715042;82;21882;-49
2022/04/12 00:49:59;;;;;;;1.47;0.90;;;;;;;1.62;100.00;99708.20;1735883;82;20956;-49
2022/04/12 00:52:26;;;;;;;1.00;1.00;;;;;;;1.64;100.00;99689.95;1735885;82;20976;-50
2022/04/12 00:54:53;;;;;;;2.02;0.70;;;;;;;1.68;100.00;99695.91;1736119;82;21459;-49
2022/04/12 00:57:20;;;;;;;1.20;1.20;;;;;;;1.68;100.00;99695.91;1736108;82;20909;-48
2022/04/12 00:59:47;;;;;;;1.32;1.22;;;;;;;1.68;100.00;99700.61;1736030;82;21142;-49
2022/04/12 01:02:14;;;;;;;0.55;0.53;;;;;;;1.73;100.00;99712.09;1715224;82;21016;-49
2022/04/12 01:04:42;;;;;;;4.55;0.50;;;;;;;1.78;100.00;99708.30;1735910;82;20996;-49
2022/04/12 01:07:09;;;;;;;2.08;0.65;;;;;;;1.77;100.00;99712.98;1728378;81;21086;-48
2022/04/12 01:09:35;;;;;;;0.50;0.50;;;;;;;1.75;100.00;99707.02;1757682;81;20939;-48
2022/04/12 01:12:09;;;;;;;1.27;0.62;;;;;;;1.76;100.00;99722.31;1757676;81;21969;-49
2022/04/12 01:14:32;;;;;;;0.55;0.55;;;;;;;1.77;100.00;99722.78;1757121;81;21494;-50
2022/04/12 01:17:00;;;;;;;0.50;0.50;;;;;;;1.77;100.00;99733.39;1757839;81;20912;-49
2022/04/12 01:19:27;;;;;;;0.53;0.53;;;;;;;1.77;100.00;99707.47;1730081;81;20932;-48
2022/04/12 01:22:00;;;;;;;0.30;0.30;;;;;;;1.77;100.00;99708.74;1757814;81;20900;-50
2022/04/12 01:24:28;;;;;;;0.40;0.40;;;;;;;1.79;100.00;99689.59;1757611;81;21106;-48
2022/04/12 01:26:55;;;;;;;1.05;0.40;;;;;;;1.79;100.00;99695.56;1757498;81;21003;-50
2022/04/12 01:29:23;;;;;;;14.43;0.60;;;;;;;1.77;100.00;99697.67;1757576;81;20983;-49
2022/04/12 01:31:50;;;;;;;0.40;0.40;;;;;;;1.77;100.00;99674.70;1757646;81;20976;-50
2022/04/12 01:34:17;;;;;;;0.35;0.35;;;;;;;1.72;100.00;99701.05;1757821;81;20916;-50
2022/04/12 01:36:44;;;;;;;0.57;0.57;;;;;;;1.68;100.00;99655.95;1757691;81;21144;-51
2022/04/12 01:39:10;;;;;;;1.15;0.80;;;;;;;1.64;100.00;99675.92;1757660;81;20928;-50
2022/04/12 01:41:38;;;;;;;0.95;0.40;;;;;;;1.62;100.00;99653.34;1757727;81;20964;-49
2022/04/12 01:44:06;;;;;;;1.85;0.90;;;;;;;1.64;100.00;99686.54;1757587;81;21023;-49
2022/04/12 01:46:32;;;;;;;1.00;0.93;;;;;;;1.62;100.00;99685.23;1757723;81;20928;-51
2022/04/12 01:49:00;;;;;;;1.87;0.42;;;;;;;1.61;100.00;99699.28;1757775;81;20928;-50
2022/04/12 01:51:28;;;;;;;1.02;0.60;;;;;;;1.62;100.00;99704.81;1757727;81;20924;-48
2022/04/12 01:53:55;;;;;;;1.60;1.37;;;;;;;1.59;100.00;99697.98;1757666;81;20928;-49
2022/04/12 01:56:24;;;;;;;1.90;1.80;;;;;;;1.62;100.00;99694.17;1757612;81;20936;-50
2022/04/12 01:58:52;;;;;;;1.98;1.87;;;;;;;1.58;100.00;99678.41;1757588;81;20896;-49
2022/04/12 02:01:19;;;;;;;1.72;1.62;;;;;;;1.56;100.00;99689.91;1757730;81;21245;-50
2022/04/12 02:03:47;;;;;;;1.87;1.45;;;;;;;1.55;100.00;99695.86;1757628;81;20927;-49
2022/04/12 02:06:14;;;;;;;3.30;1.55;;;;;;;1.50;100.00;99696.66;1754762;81;20897;-51
2022/04/12 02:08:41;;;;;;;1.45;1.37;;;;;;;1.45;100.00;99695.78;1749922;82;20933;-51
2022/04/12 02:11:09;;;;;;;2.00;1.90;;;;;;;1.44;100.00;99731.90;1750000;82;20924;-49
2022/04/12 02:13:36;;;;;;;1.98;1.77;;;;;;;1.45;100.00;99722.12;1749758;82;21155;-50
2022/04/12 02:16:05;;;;;;;2.55;1.20;;;;;;;1.42;100.00;99717.01;1749810;82;20865;-51
2022/04/12 02:18:33;;;;;;;2.10;1.02;;;;;;;1.39;100.00;99714.44;1749981;82;21490;-50
2022/04/12 02:21:01;;;;;;;1.12;0.78;;;;;;;1.34;100.00;99705.47;1749895;82;21023;-48
2022/04/12 02:23:28;;;;;;;1.20;0.70;;;;;;;1.30;100.00;99705.02;1750031;82;20999;-48
2022/04/12 02:25:56;;;;;;;1.05;0.60;;;;;;;1.27;100.00;99708.42;1749831;82;20980;-51
2022/04/12 02:28:23;;;;;;;2.42;0.50;;;;;;;1.23;100.00;99691.80;1749816;82;20972;-50
2022/04/12 02:30:51;;;;;;;0.40;0.40;;;;;;;1.16;100.00;99684.52;1749922;82;20975;-52
2022/04/12 02:33:18;;;;;;;0.95;0.60;;;;;;;1.12;100.00;99677.69;1749928;82;20971;-50
2022/04/12 02:35:45;;;;;;;0.50;0.50;;;;;;;1.10;100.00;99672.56;1749828;82;21971;-50
2022/04/12 02:38:13;;;;;;;1.60;1.00;;;;;;;1.07;100.00;99688.27;1749933;82;21747;-49
2022/04/12 02:40:40;;;;;;;1.72;0.53;;;;;;;1.03;100.00;99686.11;1750100;82;21471;-52
2022/04/12 02:43:07;;;;;;;2.90;0.72;;;;;;;1.02;100.00;99688.23;1749938;82;20975;-51
2022/04/12 02:45:33;;;;;;;0.95;0.60;;;;;;;1.00;100.00;99684.81;1749810;82;20900;-50
2022/04/12 02:48:00;;;;;;;0.62;0.62;;;;;;;1.00;100.00;99697.13;1722305;82;20988;-50
2022/04/12 02:50:27;;;;;;;0.80;0.50;;;;;;;1.05;100.00;99700.16;1749909;81;20997;-49
2022/04/12 02:52:54;;;;;;;0.70;0.53;;;;;;;1.06;100.00;99686.57;1749882;82;20972;-51
2022/04/12 02:55:20;;;;;;;0.85;0.85;;;;;;;1.11;100.00;99683.63;1750102;82;21039;-51
2022/04/12 02:57:47;;;;;;;1.90;0.70;;;;;;;1.14;100.00;99699.81;1722342;82;20928;-49
2022/04/12 03:00:15;;;;;;;1.02;0.62;;;;;;;1.17;100.00;99690.48;1722376;82;20975;-48
2022/04/12 03:02:42;;;;;;;1.35;0.60;;;;;;;1.19;100.00;99697.28;1722528;82;21916;-49
2022/04/12 03:05:10;;;;;;;0.98;0.60;;;;;;;1.20;100.00;99705.80;1749817;82;20877;-51
2022/04/12 03:07:37;;;;;;;0.82;0.50;;;;;;;1.22;100.00;99720.69;1738700;81;21456;-48
2022/04/12 03:10:05;;;;;;;0.47;0.40;;;;;;;1.24;100.00;99708.36;1735942;82;21039;-51
2022/04/12 03:12:32;;;;;;;0.90;0.50;;;;;;;1.23;100.00;99704.11;1715161;82;20937;-48
2022/04/12 03:15:02;;;;;;;0.70;0.40;;;;;;;1.31;100.00;99700.34;1736089;82;20928;-51
2022/04/12 03:17:29;;;;;;;0.85;0.70;;;;;;;1.30;100.00;99690.98;1735680;81;21453;-49
2022/04/12 03:19:56;;;;;;;0.93;0.50;;;;;;;1.31;100.00;99689.31;1735748;81;20969;-51
2022/04/12 03:22:23;;;;;;;2.45;0.70;;;;;;;1.31;100.00;99706.72;1735851;82;20949;-49
2022/04/12 03:24:50;;;;;;;0.50;0.50;;;;;;;1.33;100.00;99691.45;1735761;81;20917;-49
2022/04/12 03:27:17;;;;;;;0.60;0.40;;;;;;;1.32;100.00;99694.41;1735803;82;21140;-50
2022/04/12 03:29:43;;;;;;;0.53;0.53;;;;;;;1.32;100.00;99716.08;1735868;82;20873;-51
2022/04/12 03:32:10;;;;;;;0.62;0.45;;;;;;;1.36;100.00;99723.34;1735963;82;20941;-50
2022/04/12 03:34:40;;;;;;;1.52;0.85;;;;;;;1.37;100.00;99716.12;1735852;82;20976;-49
2022/04/12 03:37:07;;;;;;;1.25;0.68;;;;;;;1.35;100.00;99740.33;1736029;82;21466;-50
2022/04/12 03:39:35;;;;;;;0.98;0.98;;;;;;;1.35;100.00;99721.20;1735796;82;22151;-50
2022/04/12 03:42:04;;;;;;;0.70;0.70;;;;;;;1.35;100.00;99723.75;1735673;82;21475;-50
2022/04/12 03:44:31;;;;;;;1.10;1.00;;;;;;;1.37;100.00;99725.05;1735887;82;20968;-49
2022/04/12 03:46:58;;;;;;;1.60;1.30;;;;;;;1.38;100.00;99720.38;1735966;82;21554;-50
2022/04/12 03:49:24;;;;;;;1.05;0.90;;;;;;;1.35;100.00;99710.16;1735940;82;20886;-48
2022/04/12 03:51:51;;;;;;;2.00;1.00;;;;;;;1.40;100.00;99718.69;1715060;82;21162;-49
2022/04/12 03:54:18;;;;;;;3.22;2.30;;;;;;;1.35;100.00;99731.41;1735794;82;20968;-49
2022/04/12 03:56:45;;;;;;;2.62;2.52;;;;;;;1.37;100.00;99746.30;1735896;82;21042;-47
2022/04/12 03:59:11;;;;;;;3.87;3.58;;;;;;;1.36;100.00;99739.92;1735676;82;21612;-48
2022/04/12 04:01:38;;;;;;;2.83;2.72;;;;;;;1.37;100.00;99729.72;1735986;82;21051;-48
2022/04/12 04:04:06;;;;;;;3.55;3.25;;;;;;;1.36;100.00;99733.11;1735915;82;20937;-50
2022/04/12 04:06:33;;;;;;;2.70;2.50;;;;;;;1.36;100.00;99741.20;1738774;81;20928;-49
2022/04/12 04:09:01;;;;;;;2.50;2.40;;;;;;;1.34;100.00;99737.34;1749909;82;20971;-49
2022/04/12 04:11:29;;;;;;;2.80;2.65;;;;;;;1.39;100.00;99745.05;1749717;82;20948;-48
2022/04/12 04:14:00;;;;;;;3.37;3.17;;;;;;;1.41;100.00;99745.91;1749980;82;20968;-50
2022/04/12 04:16:26;;;;;;;4.25;3.80;;;;;;;1.43;100.00;99738.72;1749669;82;21919;-48
2022/04/12 04:18:52;;;;;;;4.37;3.95;;;;;;;1.45;100.00;99728.50;1749656;81;21391;-49
2022/04/12 04:22:56;;;;;;;3.27;2.15;;;;;;;1.48;100.00;99717.04;1798461;79;22737;-46
2022/04/12 04:25:24;;;;;;;1.52;1.42;;;;;;;1.43;100.00;99728.92;1758195;80;20968;-50
2022/04/12 04:27:52;;;;;;;1.45;1.10;;;;;;;1.48;100.00;99721.30;1758228;81;20999;-49
2022/04/12 04:30:19;;;;;;;1.52;0.98;;;;;;;1.49;100.00;99721.30;1758034;81;21474;-48
2022/04/12 04:32:48;;;;;;;1.40;1.30;;;;;;;1.49;100.00;99730.67;1739069;81;20941;-49
2022/04/12 04:35:15;;;;;;;1.00;1.00;;;;;;;1.47;100.00;99750.21;1758026;81;20905;-47
2022/04/12 04:37:45;;;;;;;1.05;1.00;;;;;;;1.48;100.00;99750.64;1758136;81;20987;-48
2022/04/12 04:40:16;;;;;;;0.93;0.93;;;;;;;1.48;100.00;99768.50;1758313;81;22069;-50
2022/04/12 04:42:44;;;;;;;2.20;1.20;;;;;;;1.47;100.00;99769.34;1724267;83;20951;-47
2022/04/12 04:45:13;;;;;;;0.95;0.95;;;;;;;1.47;100.00;99762.53;1724498;83;20951;-47
2022/04/12 04:47:53;;;;;;;1.55;1.10;;;;;;;1.47;100.00;99756.15;1696211;83;21514;-49
2022/04/12 04:50:24;;;;;;;1.57;1.00;;;;;;;1.45;100.00;99759.11;1724516;83;20935;-50
2022/04/12 04:52:51;;;;;;;0.80;0.80;;;;;;;1.41;100.00;99758.25;1724792;83;21925;-49
2022/04/12 04:55:18;;;;;;;0.98;0.98;;;;;;;1.38;100.00;99755.66;1724526;83;20971;-51
2022/04/12 04:57:47;;;;;;;1.07;1.05;;;;;;;1.37;100.00;99751.83;1696516;83;20963;-48
2022/04/12 05:00:17;;;;;;;1.20;1.10;;;;;;;1.32;100.00;99757.33;1724475;83;20895;-48
2022/04/12 05:02:49;;;;;;;1.95;1.40;;;;;;;1.31;100.00;99747.53;1724745;83;20947;-48
2022/04/12 05:05:17;;;;;;;0.70;0.70;;;;;;;1.28;100.00;99748.38;1724484;83;21088;-51
2022/04/12 05:07:50;;;;;;;0.90;0.88;;;;;;;1.28;100.00;99737.31;1694902;83;20916;-48
2022/04/12 05:10:22;;;;;;;0.70;0.70;;;;;;;1.27;100.00;99747.08;1686269;85;20967;-49
2022/04/12 05:12:48;;;;;;;0.75;0.75;;;;;;;1.28;100.00;99744.95;1715376;83;20947;-49
2022/04/12 05:15:16;;;;;;;1.10;0.70;;;;;;;1.27;100.00;99744.52;1687908;85;20927;-50
2022/04/12 05:17:53;;;;;;;1.77;0.80;;;;;;;1.29;100.00;99741.56;1709197;83;21326;-50
2022/04/12 05:20:21;;;;;;;0.82;0.82;;;;;;;1.28;100.00;99766.23;1708965;84;20920;-48
2022/04/12 05:22:50;;;;;;;1.05;0.60;;;;;;;1.28;100.00;99758.58;1703084;83;21608;-48
2022/04/12 05:25:17;;;;;;;1.82;0.70;;;;;;;1.28;100.00;99765.36;1711658;83;20994;-49
2022/04/12 05:27:44;;;;;;;0.98;0.90;;;;;;;1.27;100.00;99761.10;1701923;84;20975;-48
2022/04/12 05:30:13;;;;;;;1.45;0.70;;;;;;;1.35;100.00;99765.00;1711897;83;21398;-50
2022/04/12 05:32:40;;;;;;;4.50;0.65;;;;;;;1.33;100.00;99759.87;1657760;85;20948;-48
2022/04/12 05:35:08;;;;;;;0.88;0.88;;;;;;;1.35;100.00;99750.53;1701473;84;20964;-48
2022/04/12 05:37:45;;;;;;;1.27;0.70;;;;;;;1.39;100.00;99755.25;1711140;83;21474;-48
2022/04/12 05:40:13;;;;;;;0.60;0.60;;;;;;;1.39;100.00;99763.77;1701259;84;20940;-48
2022/04/12 05:42:42;;;;;;;0.47;0.47;;;;;;;1.38;100.00;99742.90;1660594;85;21185;-49
2022/04/12 05:45:10;;;;;;;0.60;0.60;;;;;;;1.41;100.00;99758.25;1711013;83;20924;-48
2022/04/12 05:47:50;;;;;;;0.60;0.60;;;;;;;1.43;100.00;99749.32;1701403;84;21566;-48
2022/04/12 05:50:22;;;;;;;4.05;0.82;;;;;;;1.45;100.00;99755.29;1683862;85;20965;-47
2022/04/12 05:52:49;;;;;;;0.70;0.70;;;;;;;1.51;100.00;99762.14;1685856;85;20918;-47
2022/04/12 05:55:17;;;;;;;1.30;0.40;;;;;;;1.52;100.00;99748.14;1711060;83;21994;-49
2022/04/12 05:58:00;;;;;;;0.72;0.72;;;;;;;1.54;100.00;99751.55;1701308;84;20881;-49
2022/04/12 06:00:31;;;;;;;0.62;0.62;;;;;;;1.54;100.00;99740.48;1711044;83;21497;-49
2022/04/12 06:02:58;;;;;;;0.95;0.93;;;;;;;1.57;100.00;99731.56;1701476;84;20980;-47
2022/04/12 06:05:32;;;;;;;0.90;0.90;;;;;;;1.60;100.00;99720.53;1711195;82;20982;-48
2022/04/12 06:08:03;;;;;;;0.85;0.80;;;;;;;1.62;100.00;99726.06;1682431;85;21060;-49
2022/04/12 06:10:30;;;;;;;1.77;1.00;;;;;;;1.63;100.00;99711.19;1711136;82;21387;-47
2022/04/12 06:12:57;;;;;;;0.85;0.70;;;;;;;1.62;100.00;99722.23;1675135;84;21007;-50
2022/04/12 06:15:24;;;;;;;0.85;0.85;;;;;;;1.65;100.00;99729.07;1711113;83;20912;-49
2022/04/12 06:17:51;;;;;;;0.90;0.88;;;;;;;1.66;100.00;99723.99;1698895;84;21023;-49
2022/04/12 06:20:19;;;;;;;0.72;0.72;;;;;;;1.69;100.00;99732.06;1711080;83;22004;-48
2022/04/12 06:22:46;;;;;;;1.50;0.80;;;;;;;1.74;100.00;99730.83;1680629;85;20952;-49
2022/04/12 06:25:15;;;;;;;14.58;1.15;;;;;;;1.77;100.00;99725.74;1744102;82;20909;-50
2022/04/12 06:27:46;;;;;;;1.32;0.93;;;;;;;1.80;100.00;99734.28;1743876;81;20941;-48
2022/04/12 06:30:16;;;;;;;0.60;0.60;;;;;;;1.81;100.00;99723.63;1744114;81;20937;-50
2022/04/12 06:32:44;;;;;;;1.55;1.40;;;;;;;1.84;100.00;99738.96;1744068;82;21363;-48
2022/04/12 06:35:12;;;;;;;1.05;1.05;;;;;;;1.90;100.00;99735.59;1744054;82;21435;-48
2022/04/12 06:37:42;;;;;;;1.45;1.20;;;;;;;1.88;100.00;99733.46;1744197;82;20927;-49
2022/04/12 06:40:11;;;;;;;1.20;1.10;;;;;;;1.93;100.00;99726.27;1743931;82;21015;-47
2022/04/12 06:42:38;;;;;;;0.82;0.82;;;;;;;1.95;100.00;99721.16;1743980;82;20999;-48
2022/04/12 06:45:07;;;;;;;1.98;1.32;;;;;;;1.97;100.00;99712.67;1744150;82;21771;-48
2022/04/12 06:47:35;;;;;;;1.30;1.00;;;;;;;1.99;100.00;99739.05;1744085;82;20913;-48
2022/04/12 06:50:02;;;;;;;1.40;1.10;;;;;;;1.98;100.00;99727.14;1743906;82;21048;-49
2022/04/12 06:52:28;;;;;;;2.20;1.30;;;;;;;2.04;100.00;99734.39;1744114;82;20862;-48
2022/04/12 06:54:55;;;;;;;1.37;1.27;;;;;;;2.03;100.00;99718.64;1744141;82;21035;-47
2022/04/12 06:57:21;;;;;;;1.10;1.02;;;;;;;2.04;100.00;99752.27;1744097;82;21422;-48
2022/04/12 06:59:48;;;;;;;1.10;1.10;;;;;;;2.08;100.00;99736.11;1744161;82;21534;-47
2022/04/12 07:02:16;;;;;;;1.17;1.10;;;;;;;2.13;100.00;99738.25;1744127;81;20963;-47
2022/04/12 07:04:42;;;;;;;1.17;1.07;;;;;;;2.12;100.00;99762.09;1743996;82;20968;-47
2022/04/12 07:07:10;;;;;;;1.70;1.50;;;;;;;2.09;100.00;99737.81;1744012;82;21003;-47
2022/04/12 07:09:37;;;;;;;1.98;1.60;;;;;;;2.11;100.00;99760.38;1744110;82;21141;-46
2022/04/12 07:12:07;;;;;;;1.60;1.00;;;;;;;2.13;100.00;99726.36;1744094;82;20885;-49
2022/04/12 07:14:36;;;;;;;1.42;1.10;;;;;;;2.18;100.00;99723.83;1743890;81;20901;-48
2022/04/12 07:17:05;;;;;;;0.70;0.62;;;;;;;2.18;100.00;99716.17;1744090;82;20861;-48
2022/04/12 07:19:33;;;;;;;1.00;0.90;;;;;;;2.20;100.00;99728.52;1744376;82;20947;-47
2022/04/12 07:21:59;;;;;;;2.62;0.90;;;;;;;2.24;100.00;99730.64;1715404;82;21104;-47
2022/04/12 07:24:28;;;;;;;0.90;0.90;;;;;;;2.28;100.00;99725.56;1710175;84;20940;-47
2022/04/12 07:26:55;;;;;;;0.80;0.80;;;;;;;2.28;100.00;99712.80;1710125;84;20940;-48
2022/04/12 07:29:21;;;;;;;1.35;0.80;;;;;;;2.33;100.00;99703.87;1702947;84;20964;-47
2022/04/12 07:31:48;;;;;;;1.12;0.90;;;;;;;2.39;100.00;99709.41;1702993;84;21500;-48
2022/04/12 07:34:14;;;;;;;0.75;0.75;;;;;;;2.39;100.00;99726.88;1702852;84;21136;-47
2022/04/12 07:36:47;;;;;;;1.10;0.90;;;;;;;2.44;100.00;99723.08;1702902;84;21023;-48
2022/04/12 07:39:09;;;;;;;1.17;1.07;;;;;;;2.49;100.00;99720.11;1702084;84;21605;-47
2022/04/12 07:41:37;;;;;;;1.00;1.00;;;;;;;2.49;100.00;99720.11;1702708;83;21542;-47
2022/04/12 07:44:05;;;;;;;0.78;0.78;;;;;;;2.52;100.00;99715.00;1703245;84;21000;-48
2022/04/12 07:46:32;;;;;;;1.10;0.98;;;;;;;2.55;100.00;99709.89;1702826;84;21268;-46
2022/04/12 07:48:59;;;;;;;1.25;1.22;;;;;;;2.62;100.00;99745.67;1702862;84;21518;-47
2022/04/12 07:51:26;;;;;;;2.20;1.00;;;;;;;2.62;100.00;99713.73;1702985;84;21439;-47
2022/04/12 07:53:54;;;;;;;1.60;1.50;;;;;;;2.68;100.00;99718.88;1702750;83;20976;-47
2022/04/12 07:56:21;;;;;;;1.32;1.32;;;;;;;2.72;100.00;99730.81;1702749;83;21015;-47
2022/04/12 07:58:49;;;;;;;1.37;1.30;;;;;;;2.78;100.00;99714.61;1702890;84;21031;-47
2022/04/12 08:01:15;;;;;;;1.80;1.25;;;;;;;2.83;100.00;99720.17;1702825;84;21003;-47
2022/04/12 08:03:43;;;;;;;1.17;0.50;;;;;;;2.88;100.00;99731.69;1702949;84;20967;-46
2022/04/12 08:06:10;;;;;;;0.70;0.70;;;;;;;2.92;100.00;99726.17;1702812;83;21541;-48
2022/04/12 08:08:39;;;;;;;0.82;0.80;;;;;;;2.91;100.00;99744.48;1702773;84;21011;-47
2022/04/12 08:11:06;;;;;;;0.80;0.80;;;;;;;2.91;100.00;99738.52;1702978;83;21332;-47
2022/04/12 08:13:35;;;;;;;1.15;0.98;;;;;;;2.86;100.00;99736.78;1702869;84;21411;-47
2022/04/12 08:16:02;;;;;;;2.37;0.90;;;;;;;2.87;100.00;99737.22;1702823;83;20991;-47
2022/04/12 08:18:31;;;;;;;1.90;1.00;;;;;;;2.87;100.00;99728.70;1702917;84;20976;-47
2022/04/12 08:20:58;;;;;;;2.02;1.27;;;;;;;2.88;100.00;99730.41;1702845;84;21058;-47
2022/04/12 08:23:25;;;;;;;1.42;1.32;;;;;;;2.93;100.00;99730.43;1712410;83;21135;-48
2022/04/12 08:25:52;;;;;;;1.80;1.25;;;;;;;2.90;100.00;99744.45;1721451;82;20958;-47
2022/04/12 08:28:20;;;;;;;1.10;1.00;;;;;;;2.89;100.00;99737.23;1721684;83;20935;-47
2022/04/12 08:30:47;;;;;;;0.85;0.85;;;;;;;2.96;100.00;99749.61;1692569;84;20919;-47
2022/04/12 08:33:15;;;;;;;1.00;1.00;;;;;;;2.96;100.00;99749.61;1692622;84;21439;-46
2022/04/12 08:35:43;;;;;;;0.80;0.80;;;;;;;3.00;100.00;99747.48;1721561;83;20935;-45
2022/04/12 08:38:10;;;;;;;1.12;0.93;;;;;;;3.02;100.00;99758.56;1721279;83;21489;-46
2022/04/12 08:40:39;;;;;;;1.25;0.72;;;;;;;3.04;100.00;99773.92;1692585;84;20931;-47
2022/04/12 08:43:07;;;;;;;2.22;0.60;;;;;;;3.00;100.00;99773.05;1692677;84;21593;-46
2022/04/12 08:45:35;;;;;;;1.47;0.90;;;;;;;2.99;100.00;99781.57;1693019;84;20915;-45
2022/04/12 08:48:06;;;;;;;0.70;0.70;;;;;;;2.97;100.00;99774.33;1692713;84;21112;-46
2022/04/12 08:50:34;;;;;;;0.75;0.70;;;;;;;2.90;100.00;99771.30;1666219;84;20892;-47
2022/04/12 08:53:01;;;;;;;0.60;0.53;;;;;;;2.86;100.00;99786.64;1721474;83;20904;-46
2022/04/12 08:55:28;;;;;;;1.25;0.90;;;;;;;2.87;100.00;99798.58;1692342;84;21037;-46
2022/04/12 08:57:55;;;;;;;1.50;0.88;;;;;;;2.80;100.00;99780.24;1721538;83;20947;-47
2022/04/12 09:00:23;;;;;;;2.70;0.93;;;;;;;2.80;100.00;99780.24;1692736;84;20983;-46
2022/04/12 09:02:57;;;;;;;0.88;0.88;;;;;;;2.81;100.00;99784.95;1692608;84;21410;-49
2022/04/12 09:05:21;;;;;;;0.70;0.70;;;;;;;2.82;100.00;99794.32;1721051;83;21429;-48
2022/04/12 09:07:48;;;;;;;1.30;1.02;;;;;;;2.75;100.00;99793.44;1721455;83;21481;-47
2022/04/12 09:10:16;;;;;;;4.37;1.42;;;;;;;2.75;100.00;99793.44;1692704;83;20987;-46
2022/04/12 09:12:43;;;;;;;2.55;1.02;;;;;;;2.78;100.00;99814.30;1692726;84;21109;-47
2022/04/12 09:15:11;;;;;;;2.05;1.00;;;;;;;2.80;100.00;99788.36;1692621;84;20903;-47
2022/04/12 09:17:41;;;;;;;2.37;0.60;;;;;;;2.80;100.00;99795.58;1721799;83;21065;-48
2022/04/12 09:20:13;;;;;;;2.33;0.70;;;;;;;2.81;100.00;99804.95;1721565;82;20908;-46
2022/04/12 09:22:40;;;;;;;3.92;0.80;;;;;;;2.80;100.00;99794.30;1688252;83;21505;-46
2022/04/12 09:25:10;;;;;;;1.52;0.68;;;;;;;2.80;100.00;99801.13;1736044;82;21217;-45
2022/04/12 09:27:39;;;;;;;4.03;0.90;;;;;;;2.79;100.00;99800.27;1700616;84;20920;-47
2022/04/12 09:30:11;;;;;;;1.10;0.70;;;;;;;2.80;100.00;99785.36;1695895;83;21076;-48
2022/04/12 09:32:40;;;;;;;0.80;0.72;;;;;;;2.86;100.00;99800.70;1695586;84;20920;-47
2022/04/12 09:35:08;;;;;;;1.15;0.80;;;;;;;2.84;100.00;99811.35;1696405;84;20979;-47
2022/04/12 09:37:38;;;;;;;2.62;0.62;;;;;;;2.90;100.00;99794.31;1695835;84;21109;-47
2022/04/12 09:40:14;;;;;;;3.12;1.15;;;;;;;2.95;100.00;99811.83;1695959;84;20917;-46
2022/04/12 09:42:55;;;;;;;2.22;1.10;;;;;;;2.97;100.00;99826.30;1667796;84;21003;-46
2022/04/12 09:45:30;;;;;;;2.37;1.27;;;;;;;2.96;100.00;99819.92;1695931;84;21430;-46
2022/04/12 09:48:02;;;;;;;1.85;0.90;;;;;;;2.99;100.00;99830.16;1695828;83;21042;-46
2022/04/12 09:50:30;;;;;;;1.12;0.72;;;;;;;2.95;100.00;99819.50;1696101;84;21250;-47
2022/04/12 09:53:00;;;;;;;1.10;0.70;;;;;;;3.00;100.00;99836.53;1695844;84;20975;-47
2022/04/12 09:55:41;;;;;;;1.70;1.20;;;;;;;3.05;100.00;99820.38;1695933;84;21549;-46
2022/04/12 09:58:16;;;;;;;1.55;1.07;;;;;;;3.09;100.00;99823.36;1695886;84;20917;-47
2022/04/12 10:00:47;;;;;;;1.25;0.72;;;;;;;3.09;100.00;99853.61;1696003;84;21011;-46
2022/04/12 10:03:15;;;;;;;1.35;0.70;;;;;;;3.07;100.00;99834.86;1695935;84;21518;-45
2022/04/12 10:05:43;;;;;;;0.70;0.70;;;;;;;3.06;100.00;99830.59;1695752;84;21558;-46
2022/04/12 10:08:14;;;;;;;1.20;1.10;;;;;;;3.08;100.00;99839.56;1695747;84;21004;-47
2022/04/12 10:10:43;;;;;;;1.27;1.10;;;;;;;3.07;100.00;99857.88;1695457;84;21000;-45
2022/04/12 10:13:11;;;;;;;1.60;1.10;;;;;;;3.10;100.00;99857.88;1695932;83;21003;-46
2022/04/12 10:15:38;;;;;;;1.15;0.90;;;;;;;3.08;100.00;99854.47;1695803;83;21065;-47
2022/04/12 10:18:05;;;;;;;1.37;0.95;;;;;;;3.08;100.00;99858.30;1695832;83;20912;-47
2022/04/12 10:20:31;;;;;;;1.77;1.10;;;;;;;3.11;100.00;99860.03;1696101;84;21592;-46
2022/04/12 10:22:59;;;;;;;4.08;1.10;;;;;;;3.18;100.00;99859.62;1695842;83;21586;-47
2022/04/12 10:25:26;;;;;;;1.67;0.90;;;;;;;3.19;100.00;99873.68;1695961;84;20972;-47
2022/04/12 10:27:56;;;;;;;2.83;0.80;;;;;;;3.21;100.00;99884.77;1695989;83;21247;-46
2022/04/12 10:30:28;;;;;;;1.50;1.02;;;;;;;3.23;100.00;99884.78;1666796;84;21483;-47
2022/04/12 10:33:17;;;;;;;2.02;1.10;;;;;;;3.23;100.00;99884.78;1695955;83;20949;-47
2022/04/12 10:35:54;;;;;;;1.35;1.00;;;;;;;3.22;100.00;99886.91;1685379;84;20897;-47
2022/04/12 10:38:24;;;;;;;0.72;0.72;;;;;;;3.23;100.00;99900.13;1695897;83;20976;-48
2022/04/12 10:40:54;;;;;;;0.98;0.80;;;;;;;3.25;100.00;99903.55;1695767;84;21062;-46
2022/04/12 10:43:33;;;;;;;1.10;0.70;;;;;;;3.21;100.00;99909.06;1695872;84;20972;-48
2022/04/12 10:46:03;;;;;;;4.25;1.70;;;;;;;3.20;100.00;99905.25;1695938;84;20924;-46
2022/04/12 10:48:30;;;;;;;1.25;1.07;;;;;;;3.14;100.00;99917.14;1696036;84;21605;-47
2022/04/12 10:51:00;;;;;;;1.87;0.80;;;;;;;3.12;100.00;99928.23;1695783;84;21148;-46
2022/04/12 10:53:44;;;;;;;1.37;0.90;;;;;;;3.12;100.00;99921.84;1695796;84;21197;-47
2022/04/12 10:56:15;;;;;;;0.70;0.70;;;;;;;3.13;100.00;99924.38;1695773;84;21027;-47
2022/04/12 10:58:43;;;;;;;1.40;1.05;;;;;;;3.14;100.00;99927.81;1695690;84;20952;-46
2022/04/12 11:01:12;;;;;;;4.87;0.90;;;;;;;3.16;100.00;99921.00;1695801;84;20984;-47
2022/04/12 11:03:46;;;;;;;2.02;0.90;;;;;;;3.09;100.00;99923.11;1695925;84;20877;-47
2022/04/12 11:06:16;;;;;;;1.15;0.75;;;;;;;3.06;100.00;99919.27;1695939;84;21316;-47
2022/04/12 11:08:47;;;;;;;1.55;0.98;;;;;;;3.06;100.00;99919.27;1694730;84;21011;-47
2022/04/12 11:11:27;;;;;;;2.98;0.95;;;;;;;3.07;100.00;99928.64;1695926;83;21073;-47
2022/04/12 11:13:56;;;;;;;2.72;1.00;;;;;;;3.07;100.00;99929.48;1695893;84;20968;-47
2022/04/12 11:16:27;;;;;;;1.10;0.82;;;;;;;3.06;100.00;99931.61;1695883;84;21050;-48
2022/04/12 11:18:59;;;;;;;1.52;1.40;;;;;;;3.06;100.00;99930.33;1695969;84;21228;-47
2022/04/12 11:21:29;;;;;;;1.27;0.90;;;;;;;3.06;100.00;99944.40;1695815;83;21003;-48
2022/04/12 11:24:02;;;;;;;0.90;0.50;;;;;;;3.05;100.00;99941.85;1681731;83;21482;-47
2022/04/12 11:27:02;;;;;;;0.70;0.50;;;;;;;3.02;100.00;99937.56;1711081;82;22287;-48
2022/04/12 11:29:29;;;;;;;2.52;1.00;;;;;;;2.98;100.00;99948.64;1701372;84;20936;-48
2022/04/12 11:31:56;;;;;;;1.45;0.95;;;;;;;2.98;100.00;99948.64;1711266;83;21152;-47
2022/04/12 11:34:29;;;;;;;1.37;0.85;;;;;;;3.01;100.00;99940.53;1701293;84;21540;-48
2022/04/12 11:36:57;;;;;;;0.70;0.65;;;;;;;3.03;100.00;99954.63;1683118;85;21483;-48
2022/04/12 11:39:32;;;;;;;2.05;0.93;;;;;;;3.00;100.00;99947.77;1684033;83;20972;-46
2022/04/12 11:42:03;;;;;;;0.62;0.62;;;;;;;3.00;100.00;99940.11;1683925;84;21008;-48
2022/04/12 11:44:31;;;;;;;0.90;0.57;;;;;;;3.01;100.00;99949.48;1683919;85;21518;-47